Aviation Digital Data Service (ADDS)

Output produced by METARs form (2216 UTC 24 March 2019)
found at http://www.aviationweather.gov/metar/data/
 
TAF TTPP 241600Z 2418/2518 11013KT 9999 SCT024 
     BECMG 2500/2502 11005KT FEW016 
     BECMG 2512/2514 10015KT SCT020 SCT040
       
TAF TTCP 241600Z 2418/2518 11013KT 9999 FEW022 
     BECMG 2500/2502 09005KT FEW016 
     BECMG 2512/2514 10015KT SCT020 SCT040